sensor_id;sensor_type;location;lat;lon;timestamp;P1;durP1;ratioP1;P2;durP2;ratioP2
8887;SDS011;4480;52.370;9.748;2023-02-11T00:00:43;37.42;;;25.23;;
8887;SDS011;4480;52.370;9.748;2023-02-11T00:03:10;36.97;;;24.10;;
8887;SDS011;4480;52.370;9.748;2023-02-11T00:05:37;39.55;;;25.40;;
8887;SDS011;4480;52.370;9.748;2023-02-11T00:08:05;38.88;;;24.13;;
8887;SDS011;4480;52.370;9.748;2023-02-11T00:10:32;38.25;;;24.50;;
8887;SDS011;4480;52.370;9.748;2023-02-11T00:12:59;39.38;;;27.48;;
8887;SDS011;4480;52.370;9.748;2023-02-11T00:15:25;42.25;;;26.42;;
8887;SDS011;4480;52.370;9.748;2023-02-11T00:17:52;46.17;;;26.45;;
8887;SDS011;4480;52.370;9.748;2023-02-11T00:20:19;41.40;;;26.67;;
8887;SDS011;4480;52.370;9.748;2023-02-11T00:22:46;46.67;;;28.75;;
8887;SDS011;4480;52.370;9.748;2023-02-11T00:25:14;41.17;;;27.17;;
8887;SDS011;4480;52.370;9.748;2023-02-11T00:27:40;45.55;;;25.30;;
8887;SDS011;4480;52.370;9.748;2023-02-11T00:30:07;46.53;;;28.23;;
8887;SDS011;4480;52.370;9.748;2023-02-11T00:32:36;39.83;;;24.17;;
8887;SDS011;4480;52.370;9.748;2023-02-11T00:35:03;40.60;;;26.75;;
8887;SDS011;4480;52.370;9.748;2023-02-11T00:37:30;47.75;;;29.63;;
8887;SDS011;4480;52.370;9.748;2023-02-11T00:40:00;44.20;;;26.50;;
8887;SDS011;4480;52.370;9.748;2023-02-11T00:42:28;41.60;;;27.65;;
8887;SDS011;4480;52.370;9.748;2023-02-11T00:44:55;42.70;;;25.10;;
8887;SDS011;4480;52.370;9.748;2023-02-11T00:47:22;41.25;;;27.63;;
8887;SDS011;4480;52.370;9.748;2023-02-11T00:49:49;40.78;;;25.90;;
8887;SDS011;4480;52.370;9.748;2023-02-11T00:52:16;46.88;;;28.02;;
8887;SDS011;4480;52.370;9.748;2023-02-11T00:54:42;47.00;;;27.88;;
8887;SDS011;4480;52.370;9.748;2023-02-11T00:57:09;41.78;;;26.38;;
8887;SDS011;4480;52.370;9.748;2023-02-11T00:59:37;43.67;;;26.98;;
8887;SDS011;4480;52.370;9.748;2023-02-11T01:02:05;43.85;;;28.88;;
8887;SDS011;4480;52.370;9.748;2023-02-11T01:04:32;43.97;;;26.45;;
8887;SDS011;4480;52.370;9.748;2023-02-11T01:06:58;51.60;;;28.42;;
8887;SDS011;4480;52.370;9.748;2023-02-11T01:09:25;38.47;;;26.23;;
8887;SDS011;4480;52.370;9.748;2023-02-11T01:11:52;46.17;;;28.38;;
8887;SDS011;4480;52.370;9.748;2023-02-11T01:14:19;44.33;;;29.80;;
8887;SDS011;4480;52.370;9.748;2023-02-11T01:16:47;46.50;;;27.20;;
8887;SDS011;4480;52.370;9.748;2023-02-11T01:19:13;45.22;;;28.13;;
8887;SDS011;4480;52.370;9.748;2023-02-11T01:21:40;45.85;;;29.25;;
8887;SDS011;4480;52.370;9.748;2023-02-11T01:24:07;47.83;;;29.10;;
8887;SDS011;4480;52.370;9.748;2023-02-11T01:26:34;47.53;;;29.73;;
8887;SDS011;4480;52.370;9.748;2023-02-11T01:29:01;48.15;;;30.38;;
8887;SDS011;4480;52.370;9.748;2023-02-11T01:31:28;51.20;;;28.08;;
8887;SDS011;4480;52.370;9.748;2023-02-11T01:33:57;53.75;;;31.77;;
8887;SDS011;4480;52.370;9.748;2023-02-11T01:36:24;50.00;;;29.70;;
8887;SDS011;4480;52.370;9.748;2023-02-11T01:38:50;48.45;;;29.20;;
8887;SDS011;4480;52.370;9.748;2023-02-11T01:41:17;51.72;;;31.10;;
8887;SDS011;4480;52.370;9.748;2023-02-11T01:43:45;51.08;;;29.85;;
8887;SDS011;4480;52.370;9.748;2023-02-11T01:46:16;49.00;;;31.05;;
8887;SDS011;4480;52.370;9.748;2023-02-11T01:48:51;46.95;;;29.85;;
8887;SDS011;4480;52.370;9.748;2023-02-11T01:51:25;49.88;;;31.25;;
8887;SDS011;4480;52.370;9.748;2023-02-11T01:53:56;51.20;;;31.35;;
8887;SDS011;4480;52.370;9.748;2023-02-11T01:56:43;56.78;;;33.50;;
8887;SDS011;4480;52.370;9.748;2023-02-11T01:59:37;55.97;;;32.50;;
8887;SDS011;4480;52.370;9.748;2023-02-11T02:02:09;49.35;;;30.48;;
8887;SDS011;4480;52.370;9.748;2023-02-11T02:04:42;54.08;;;32.88;;
8887;SDS011;4480;52.370;9.748;2023-02-11T02:07:16;60.67;;;33.30;;
8887;SDS011;4480;52.370;9.748;2023-02-11T02:09:48;55.70;;;32.60;;
8887;SDS011;4480;52.370;9.748;2023-02-11T02:12:21;60.35;;;35.28;;
8887;SDS011;4480;52.370;9.748;2023-02-11T02:14:47;55.78;;;32.95;;
8887;SDS011;4480;52.370;9.748;2023-02-11T02:17:17;57.13;;;32.38;;
8887;SDS011;4480;52.370;9.748;2023-02-11T02:20:18;61.92;;;33.13;;
8887;SDS011;4480;52.370;9.748;2023-02-11T02:23:24;48.35;;;31.58;;
8887;SDS011;4480;52.370;9.748;2023-02-11T02:26:08;54.13;;;33.85;;
8887;SDS011;4480;52.370;9.748;2023-02-11T02:29:12;59.13;;;34.10;;
8887;SDS011;4480;52.370;9.748;2023-02-11T02:31:52;50.03;;;28.75;;
8887;SDS011;4480;52.370;9.748;2023-02-11T02:34:29;53.70;;;29.42;;
8887;SDS011;4480;52.370;9.748;2023-02-11T02:37:03;52.10;;;32.58;;
8887;SDS011;4480;52.370;9.748;2023-02-11T02:39:34;59.95;;;34.25;;
8887;SDS011;4480;52.370;9.748;2023-02-11T02:42:02;48.92;;;30.77;;
8887;SDS011;4480;52.370;9.748;2023-02-11T02:44:30;56.78;;;30.70;;
8887;SDS011;4480;52.370;9.748;2023-02-11T02:46:57;53.15;;;31.88;;
8887;SDS011;4480;52.370;9.748;2023-02-11T02:49:24;53.47;;;28.05;;
8887;SDS011;4480;52.370;9.748;2023-02-11T02:51:59;59.08;;;33.75;;
8887;SDS011;4480;52.370;9.748;2023-02-11T02:54:43;50.78;;;31.38;;
8887;SDS011;4480;52.370;9.748;2023-02-11T02:57:38;53.75;;;31.13;;
8887;SDS011;4480;52.370;9.748;2023-02-11T03:00:17;51.17;;;30.85;;
8887;SDS011;4480;52.370;9.748;2023-02-11T03:02:52;55.53;;;30.08;;
8887;SDS011;4480;52.370;9.748;2023-02-11T03:05:31;49.90;;;30.85;;
8887;SDS011;4480;52.370;9.748;2023-02-11T03:08:08;51.78;;;32.08;;
8887;SDS011;4480;52.370;9.748;2023-02-11T03:10:42;51.35;;;29.25;;
8887;SDS011;4480;52.370;9.748;2023-02-11T03:13:11;50.15;;;29.13;;
8887;SDS011;4480;52.370;9.748;2023-02-11T03:15:42;53.30;;;31.23;;
8887;SDS011;4480;52.370;9.748;2023-02-11T03:18:12;44.45;;;29.15;;
8887;SDS011;4480;52.370;9.748;2023-02-11T03:20:42;51.28;;;28.10;;
8887;SDS011;4480;52.370;9.748;2023-02-11T03:23:14;49.80;;;27.90;;
8887;SDS011;4480;52.370;9.748;2023-02-11T03:25:47;49.83;;;28.88;;
8887;SDS011;4480;52.370;9.748;2023-02-11T03:28:17;49.78;;;28.63;;
8887;SDS011;4480;52.370;9.748;2023-02-11T03:30:53;47.20;;;27.05;;
8887;SDS011;4480;52.370;9.748;2023-02-11T03:33:24;52.88;;;27.90;;
8887;SDS011;4480;52.370;9.748;2023-02-11T03:35:54;46.78;;;26.08;;
8887;SDS011;4480;52.370;9.748;2023-02-11T03:38:26;48.90;;;29.98;;
8887;SDS011;4480;52.370;9.748;2023-02-11T03:40:56;45.13;;;28.00;;
8887;SDS011;4480;52.370;9.748;2023-02-11T03:43:26;46.35;;;28.80;;
8887;SDS011;4480;52.370;9.748;2023-02-11T03:45:58;48.67;;;30.25;;
8887;SDS011;4480;52.370;9.748;2023-02-11T03:48:27;47.53;;;28.08;;
8887;SDS011;4480;52.370;9.748;2023-02-11T03:50:58;49.22;;;29.83;;
8887;SDS011;4480;52.370;9.748;2023-02-11T03:53:29;46.00;;;26.42;;
8887;SDS011;4480;52.370;9.748;2023-02-11T03:55:55;53.78;;;27.60;;
8887;SDS011;4480;52.370;9.748;2023-02-11T03:58:27;45.40;;;29.17;;
8887;SDS011;4480;52.370;9.748;2023-02-11T04:00:54;50.00;;;30.85;;
8887;SDS011;4480;52.370;9.748;2023-02-11T04:03:21;48.60;;;28.45;;
8887;SDS011;4480;52.370;9.748;2023-02-11T04:05:48;47.30;;;27.80;;
8887;SDS011;4480;52.370;9.748;2023-02-11T04:11:07;49.60;;;27.45;;
8887;SDS011;4480;52.370;9.748;2023-02-11T04:13:34;52.28;;;28.15;;
8887;SDS011;4480;52.370;9.748;2023-02-11T04:16:01;50.28;;;27.98;;
8887;SDS011;4480;52.370;9.748;2023-02-11T04:18:28;48.42;;;28.15;;
8887;SDS011;4480;52.370;9.748;2023-02-11T04:20:55;47.15;;;26.48;;
8887;SDS011;4480;52.370;9.748;2023-02-11T04:25:52;46.92;;;29.83;;
8887;SDS011;4480;52.370;9.748;2023-02-11T04:28:21;49.53;;;29.63;;
8887;SDS011;4480;52.370;9.748;2023-02-11T04:30:48;53.95;;;30.45;;
8887;SDS011;4480;52.370;9.748;2023-02-11T04:33:15;48.13;;;29.25;;
8887;SDS011;4480;52.370;9.748;2023-02-11T04:35:42;48.58;;;28.27;;
8887;SDS011;4480;52.370;9.748;2023-02-11T04:38:09;47.05;;;27.50;;
8887;SDS011;4480;52.370;9.748;2023-02-11T04:40:35;51.05;;;29.85;;
8887;SDS011;4480;52.370;9.748;2023-02-11T04:43:02;52.67;;;28.20;;
8887;SDS011;4480;52.370;9.748;2023-02-11T04:45:30;48.25;;;28.58;;
8887;SDS011;4480;52.370;9.748;2023-02-11T04:47:58;45.67;;;28.30;;
8887;SDS011;4480;52.370;9.748;2023-02-11T04:50:24;47.47;;;29.95;;
8887;SDS011;4480;52.370;9.748;2023-02-11T04:52:51;43.20;;;27.55;;
8887;SDS011;4480;52.370;9.748;2023-02-11T04:55:18;42.60;;;29.23;;
8887;SDS011;4480;52.370;9.748;2023-02-11T04:57:44;44.08;;;28.13;;
8887;SDS011;4480;52.370;9.748;2023-02-11T05:00:12;44.83;;;25.63;;
8887;SDS011;4480;52.370;9.748;2023-02-11T05:02:40;47.45;;;25.80;;
8887;SDS011;4480;52.370;9.748;2023-02-11T05:05:07;45.30;;;26.67;;
8887;SDS011;4480;52.370;9.748;2023-02-11T05:07:34;41.60;;;24.75;;
8887;SDS011;4480;52.370;9.748;2023-02-11T05:10:01;40.03;;;25.60;;
8887;SDS011;4480;52.370;9.748;2023-02-11T05:12:28;42.72;;;26.88;;
8887;SDS011;4480;52.370;9.748;2023-02-11T05:14:55;38.00;;;25.40;;
8887;SDS011;4480;52.370;9.748;2023-02-11T05:17:21;41.80;;;25.27;;
8887;SDS011;4480;52.370;9.748;2023-02-11T05:19:49;38.45;;;25.23;;
8887;SDS011;4480;52.370;9.748;2023-02-11T05:22:16;35.35;;;24.88;;
8887;SDS011;4480;52.370;9.748;2023-02-11T05:24:43;36.67;;;23.45;;
8887;SDS011;4480;52.370;9.748;2023-02-11T05:27:10;34.70;;;22.85;;
8887;SDS011;4480;52.370;9.748;2023-02-11T05:29:37;36.08;;;24.08;;
8887;SDS011;4480;52.370;9.748;2023-02-11T05:32:03;42.10;;;25.30;;
8887;SDS011;4480;52.370;9.748;2023-02-11T05:34:31;45.47;;;25.25;;
8887;SDS011;4480;52.370;9.748;2023-02-11T05:36:59;44.10;;;25.30;;
8887;SDS011;4480;52.370;9.748;2023-02-11T05:39:26;44.20;;;22.67;;
8887;SDS011;4480;52.370;9.748;2023-02-11T05:41:52;38.47;;;24.40;;
8887;SDS011;4480;52.370;9.748;2023-02-11T05:44:19;33.03;;;22.48;;
8887;SDS011;4480;52.370;9.748;2023-02-11T05:46:46;33.97;;;22.88;;
8887;SDS011;4480;52.370;9.748;2023-02-11T05:49:13;36.35;;;25.27;;
8887;SDS011;4480;52.370;9.748;2023-02-11T05:51:41;37.10;;;23.25;;
8887;SDS011;4480;52.370;9.748;2023-02-11T05:54:09;38.97;;;23.67;;
8887;SDS011;4480;52.370;9.748;2023-02-11T05:56:36;39.65;;;23.73;;
8887;SDS011;4480;52.370;9.748;2023-02-11T05:59:03;42.13;;;24.40;;
8887;SDS011;4480;52.370;9.748;2023-02-11T06:01:29;42.25;;;27.13;;
8887;SDS011;4480;52.370;9.748;2023-02-11T06:03:56;37.45;;;25.90;;
8887;SDS011;4480;52.370;9.748;2023-02-11T06:06:23;39.90;;;27.10;;
8887;SDS011;4480;52.370;9.748;2023-02-11T06:08:50;41.90;;;24.45;;
8887;SDS011;4480;52.370;9.748;2023-02-11T06:11:18;38.97;;;25.73;;
8887;SDS011;4480;52.370;9.748;2023-02-11T06:13:45;46.15;;;26.13;;
8887;SDS011;4480;52.370;9.748;2023-02-11T06:16:12;34.88;;;23.80;;
8887;SDS011;4480;52.370;9.748;2023-02-11T06:18:38;35.03;;;25.15;;
8887;SDS011;4480;52.370;9.748;2023-02-11T06:21:06;36.67;;;24.52;;
8887;SDS011;4480;52.370;9.748;2023-02-11T06:23:33;35.92;;;24.17;;
8887;SDS011;4480;52.370;9.748;2023-02-11T06:26:00;42.42;;;25.92;;
8887;SDS011;4480;52.370;9.748;2023-02-11T06:28:29;38.80;;;23.27;;
8887;SDS011;4480;52.370;9.748;2023-02-11T06:30:56;35.22;;;22.58;;
8887;SDS011;4480;52.370;9.748;2023-02-11T06:33:23;44.28;;;23.55;;
8887;SDS011;4480;52.370;9.748;2023-02-11T06:35:50;39.90;;;24.85;;
8887;SDS011;4480;52.370;9.748;2023-02-11T06:38:17;32.78;;;23.17;;
8887;SDS011;4480;52.370;9.748;2023-02-11T06:40:45;41.80;;;23.70;;
8887;SDS011;4480;52.370;9.748;2023-02-11T06:43:13;36.40;;;23.23;;
8887;SDS011;4480;52.370;9.748;2023-02-11T06:45:41;36.85;;;23.23;;
8887;SDS011;4480;52.370;9.748;2023-02-11T06:48:08;36.67;;;24.00;;
8887;SDS011;4480;52.370;9.748;2023-02-11T06:50:35;42.47;;;25.50;;
8887;SDS011;4480;52.370;9.748;2023-02-11T06:53:02;40.58;;;23.85;;
8887;SDS011;4480;52.370;9.748;2023-02-11T06:55:29;35.10;;;21.55;;
8887;SDS011;4480;52.370;9.748;2023-02-11T06:57:55;33.90;;;24.05;;
8887;SDS011;4480;52.370;9.748;2023-02-11T07:00:22;32.63;;;23.13;;
8887;SDS011;4480;52.370;9.748;2023-02-11T07:02:50;31.35;;;24.10;;
8887;SDS011;4480;52.370;9.748;2023-02-11T07:05:17;42.88;;;25.45;;
8887;SDS011;4480;52.370;9.748;2023-02-11T07:07:44;38.55;;;25.02;;
8887;SDS011;4480;52.370;9.748;2023-02-11T07:10:11;37.22;;;23.85;;
8887;SDS011;4480;52.370;9.748;2023-02-11T07:12:38;36.88;;;24.00;;
8887;SDS011;4480;52.370;9.748;2023-02-11T07:15:05;32.60;;;22.33;;
8887;SDS011;4480;52.370;9.748;2023-02-11T07:17:33;38.45;;;22.40;;
8887;SDS011;4480;52.370;9.748;2023-02-11T07:20:01;36.60;;;21.90;;
8887;SDS011;4480;52.370;9.748;2023-02-11T07:22:28;38.33;;;22.63;;
8887;SDS011;4480;52.370;9.748;2023-02-11T07:24:55;37.45;;;24.95;;
8887;SDS011;4480;52.370;9.748;2023-02-11T07:27:22;33.22;;;23.00;;
8887;SDS011;4480;52.370;9.748;2023-02-11T07:29:49;36.40;;;23.80;;
8887;SDS011;4480;52.370;9.748;2023-02-11T07:32:16;32.88;;;22.83;;
8887;SDS011;4480;52.370;9.748;2023-02-11T07:34:42;38.30;;;22.10;;
8887;SDS011;4480;52.370;9.748;2023-02-11T07:37:10;33.03;;;23.08;;
8887;SDS011;4480;52.370;9.748;2023-02-11T07:39:37;41.45;;;23.60;;
8887;SDS011;4480;52.370;9.748;2023-02-11T07:42:04;34.30;;;21.88;;
8887;SDS011;4480;52.370;9.748;2023-02-11T07:44:31;32.90;;;21.42;;
8887;SDS011;4480;52.370;9.748;2023-02-11T07:46:59;36.85;;;24.15;;
8887;SDS011;4480;52.370;9.748;2023-02-11T07:49:25;34.53;;;21.95;;
8887;SDS011;4480;52.370;9.748;2023-02-11T07:51:52;34.42;;;23.05;;
8887;SDS011;4480;52.370;9.748;2023-02-11T07:54:20;36.20;;;22.50;;
8887;SDS011;4480;52.370;9.748;2023-02-11T07:56:47;35.38;;;23.90;;
8887;SDS011;4480;52.370;9.748;2023-02-11T07:59:14;39.30;;;22.75;;
8887;SDS011;4480;52.370;9.748;2023-02-11T08:01:41;33.72;;;19.48;;
8887;SDS011;4480;52.370;9.748;2023-02-11T08:04:08;39.95;;;22.60;;
8887;SDS011;4480;52.370;9.748;2023-02-11T08:06:38;34.00;;;21.63;;
8887;SDS011;4480;52.370;9.748;2023-02-11T08:09:07;36.38;;;21.90;;
8887;SDS011;4480;52.370;9.748;2023-02-11T08:11:40;30.40;;;22.00;;
8887;SDS011;4480;52.370;9.748;2023-02-11T08:14:07;35.15;;;20.95;;
8887;SDS011;4480;52.370;9.748;2023-02-11T08:16:34;32.42;;;22.65;;
8887;SDS011;4480;52.370;9.748;2023-02-11T08:19:03;35.25;;;24.02;;
8887;SDS011;4480;52.370;9.748;2023-02-11T08:21:31;41.45;;;22.65;;
8887;SDS011;4480;52.370;9.748;2023-02-11T08:23:59;35.30;;;22.60;;
8887;SDS011;4480;52.370;9.748;2023-02-11T08:26:27;37.80;;;21.42;;
8887;SDS011;4480;52.370;9.748;2023-02-11T08:28:57;32.00;;;20.90;;
8887;SDS011;4480;52.370;9.748;2023-02-11T08:31:25;33.83;;;22.90;;
8887;SDS011;4480;52.370;9.748;2023-02-11T08:33:53;34.17;;;21.88;;
8887;SDS011;4480;52.370;9.748;2023-02-11T08:36:22;28.17;;;20.42;;
8887;SDS011;4480;52.370;9.748;2023-02-11T08:38:52;31.90;;;21.05;;
8887;SDS011;4480;52.370;9.748;2023-02-11T08:41:19;25.88;;;19.50;;
8887;SDS011;4480;52.370;9.748;2023-02-11T08:43:46;34.30;;;21.52;;
8887;SDS011;4480;52.370;9.748;2023-02-11T08:46:15;29.35;;;20.63;;
8887;SDS011;4480;52.370;9.748;2023-02-11T08:48:44;26.58;;;17.27;;
8887;SDS011;4480;52.370;9.748;2023-02-11T08:51:12;35.58;;;22.50;;
8887;SDS011;4480;52.370;9.748;2023-02-11T08:53:40;29.48;;;18.23;;
8887;SDS011;4480;52.370;9.748;2023-02-11T08:56:07;34.20;;;21.52;;
8887;SDS011;4480;52.370;9.748;2023-02-11T08:58:35;33.53;;;21.50;;
8887;SDS011;4480;52.370;9.748;2023-02-11T09:01:07;29.13;;;21.15;;
8887;SDS011;4480;52.370;9.748;2023-02-11T09:03:36;31.45;;;21.55;;
8887;SDS011;4480;52.370;9.748;2023-02-11T09:06:03;29.55;;;20.63;;
8887;SDS011;4480;52.370;9.748;2023-02-11T09:08:32;35.17;;;20.70;;
8887;SDS011;4480;52.370;9.748;2023-02-11T09:11:00;33.65;;;19.58;;
8887;SDS011;4480;52.370;9.748;2023-02-11T09:13:27;33.80;;;22.48;;
8887;SDS011;4480;52.370;9.748;2023-02-11T09:15:54;31.48;;;19.27;;
8887;SDS011;4480;52.370;9.748;2023-02-11T09:18:21;32.45;;;20.63;;
8887;SDS011;4480;52.370;9.748;2023-02-11T09:20:49;33.25;;;22.02;;
8887;SDS011;4480;52.370;9.748;2023-02-11T09:23:16;33.28;;;21.58;;
8887;SDS011;4480;52.370;9.748;2023-02-11T09:25:43;33.40;;;22.00;;
8887;SDS011;4480;52.370;9.748;2023-02-11T09:28:10;28.38;;;19.27;;
8887;SDS011;4480;52.370;9.748;2023-02-11T09:30:36;32.67;;;20.02;;
8887;SDS011;4480;52.370;9.748;2023-02-11T09:33:03;33.45;;;20.90;;
8887;SDS011;4480;52.370;9.748;2023-02-11T09:35:31;36.55;;;22.00;;
8887;SDS011;4480;52.370;9.748;2023-02-11T09:38:00;38.08;;;21.85;;
8887;SDS011;4480;52.370;9.748;2023-02-11T09:40:27;34.80;;;22.95;;
8887;SDS011;4480;52.370;9.748;2023-02-11T09:42:56;31.98;;;21.42;;
8887;SDS011;4480;52.370;9.748;2023-02-11T09:45:29;32.65;;;20.08;;
8887;SDS011;4480;52.370;9.748;2023-02-11T09:47:57;30.75;;;19.63;;
8887;SDS011;4480;52.370;9.748;2023-02-11T09:50:28;35.80;;;21.50;;
8887;SDS011;4480;52.370;9.748;2023-02-11T09:52:58;41.10;;;22.55;;
8887;SDS011;4480;52.370;9.748;2023-02-11T09:55:29;33.53;;;21.25;;
8887;SDS011;4480;52.370;9.748;2023-02-11T09:58:01;31.20;;;21.90;;
8887;SDS011;4480;52.370;9.748;2023-02-11T10:00:31;37.13;;;21.90;;
8887;SDS011;4480;52.370;9.748;2023-02-11T10:06:13;30.13;;;18.95;;
8887;SDS011;4480;52.370;9.748;2023-02-11T10:08:58;34.25;;;22.38;;
8887;SDS011;4480;52.370;9.748;2023-02-11T10:11:30;32.85;;;20.67;;
8887;SDS011;4480;52.370;9.748;2023-02-11T10:14:07;35.35;;;21.30;;
8887;SDS011;4480;52.370;9.748;2023-02-11T10:16:46;30.38;;;20.25;;
8887;SDS011;4480;52.370;9.748;2023-02-11T10:19:28;35.63;;;23.30;;
8887;SDS011;4480;52.370;9.748;2023-02-11T10:22:07;30.70;;;22.05;;
8887;SDS011;4480;52.370;9.748;2023-02-11T10:24:39;36.38;;;21.50;;
8887;SDS011;4480;52.370;9.748;2023-02-11T10:27:11;32.92;;;21.42;;
8887;SDS011;4480;52.370;9.748;2023-02-11T10:29:44;35.95;;;21.15;;
8887;SDS011;4480;52.370;9.748;2023-02-11T10:32:17;27.98;;;20.02;;
8887;SDS011;4480;52.370;9.748;2023-02-11T10:34:55;37.08;;;22.60;;
8887;SDS011;4480;52.370;9.748;2023-02-11T10:37:26;30.30;;;22.35;;
8887;SDS011;4480;52.370;9.748;2023-02-11T10:39:55;30.98;;;18.67;;
8887;SDS011;4480;52.370;9.748;2023-02-11T10:42:21;41.35;;;20.98;;
8887;SDS011;4480;52.370;9.748;2023-02-11T10:44:52;32.47;;;18.95;;
8887;SDS011;4480;52.370;9.748;2023-02-11T10:47:25;31.15;;;19.67;;
8887;SDS011;4480;52.370;9.748;2023-02-11T10:49:56;34.08;;;21.63;;
8887;SDS011;4480;52.370;9.748;2023-02-11T10:52:28;33.97;;;21.17;;
8887;SDS011;4480;52.370;9.748;2023-02-11T10:55:00;31.85;;;19.42;;
8887;SDS011;4480;52.370;9.748;2023-02-11T10:57:32;31.02;;;21.00;;
8887;SDS011;4480;52.370;9.748;2023-02-11T11:00:03;34.03;;;19.92;;
8887;SDS011;4480;52.370;9.748;2023-02-11T11:02:35;30.15;;;19.80;;
8887;SDS011;4480;52.370;9.748;2023-02-11T11:05:14;28.92;;;20.98;;
8887;SDS011;4480;52.370;9.748;2023-02-11T11:07:50;36.42;;;20.40;;
8887;SDS011;4480;52.370;9.748;2023-02-11T11:10:25;32.45;;;21.63;;
8887;SDS011;4480;52.370;9.748;2023-02-11T11:12:56;24.60;;;17.27;;
8887;SDS011;4480;52.370;9.748;2023-02-11T11:15:24;33.28;;;20.42;;
8887;SDS011;4480;52.370;9.748;2023-02-11T11:18:08;43.67;;;21.92;;
8887;SDS011;4480;52.370;9.748;2023-02-11T11:20:38;30.48;;;19.65;;
8887;SDS011;4480;52.370;9.748;2023-02-11T11:23:13;37.35;;;20.80;;
8887;SDS011;4480;52.370;9.748;2023-02-11T11:25:45;31.45;;;19.55;;
8887;SDS011;4480;52.370;9.748;2023-02-11T11:28:26;27.67;;;19.25;;
8887;SDS011;4480;52.370;9.748;2023-02-11T11:30:55;35.60;;;21.02;;
8887;SDS011;4480;52.370;9.748;2023-02-11T11:33:25;32.40;;;21.63;;
8887;SDS011;4480;52.370;9.748;2023-02-11T11:35:58;38.83;;;22.80;;
8887;SDS011;4480;52.370;9.748;2023-02-11T11:38:28;38.63;;;23.55;;
8887;SDS011;4480;52.370;9.748;2023-02-11T11:41:18;30.15;;;20.35;;
8887;SDS011;4480;52.370;9.748;2023-02-11T11:43:53;26.60;;;18.23;;
8887;SDS011;4480;52.370;9.748;2023-02-11T11:46:26;30.17;;;19.17;;
8887;SDS011;4480;52.370;9.748;2023-02-11T11:48:55;32.70;;;19.55;;
8887;SDS011;4480;52.370;9.748;2023-02-11T11:51:28;32.63;;;20.83;;
8887;SDS011;4480;52.370;9.748;2023-02-11T11:53:58;31.10;;;21.02;;
8887;SDS011;4480;52.370;9.748;2023-02-11T11:56:31;32.22;;;21.15;;
8887;SDS011;4480;52.370;9.748;2023-02-11T11:58:59;29.48;;;17.77;;
8887;SDS011;4480;52.370;9.748;2023-02-11T12:01:33;28.38;;;21.38;;
8887;SDS011;4480;52.370;9.748;2023-02-11T12:04:14;29.90;;;21.75;;
8887;SDS011;4480;52.370;9.748;2023-02-11T12:06:52;34.92;;;21.17;;
8887;SDS011;4480;52.370;9.748;2023-02-11T12:09:34;27.63;;;18.95;;
8887;SDS011;4480;52.370;9.748;2023-02-11T12:12:20;31.17;;;21.45;;
8887;SDS011;4480;52.370;9.748;2023-02-11T12:14:58;31.27;;;21.92;;
8887;SDS011;4480;52.370;9.748;2023-02-11T12:17:51;29.58;;;21.08;;
8887;SDS011;4480;52.370;9.748;2023-02-11T12:20:34;36.22;;;19.35;;
8887;SDS011;4480;52.370;9.748;2023-02-11T12:23:17;35.05;;;19.30;;
8887;SDS011;4480;52.370;9.748;2023-02-11T12:25:59;30.65;;;21.40;;
8887;SDS011;4480;52.370;9.748;2023-02-11T12:28:37;33.10;;;21.40;;
8887;SDS011;4480;52.370;9.748;2023-02-11T12:31:16;32.85;;;19.95;;
8887;SDS011;4480;52.370;9.748;2023-02-11T12:33:59;40.25;;;21.40;;
8887;SDS011;4480;52.370;9.748;2023-02-11T12:36:52;32.50;;;20.25;;
8887;SDS011;4480;52.370;9.748;2023-02-11T12:39:32;36.22;;;20.17;;
8887;SDS011;4480;52.370;9.748;2023-02-11T12:42:06;34.67;;;22.13;;
8887;SDS011;4480;52.370;9.748;2023-02-11T12:45:17;34.88;;;21.73;;
8887;SDS011;4480;52.370;9.748;2023-02-11T12:47:55;36.08;;;20.25;;
8887;SDS011;4480;52.370;9.748;2023-02-11T12:50:33;33.80;;;22.52;;
8887;SDS011;4480;52.370;9.748;2023-02-11T12:53:14;35.05;;;23.38;;
8887;SDS011;4480;52.370;9.748;2023-02-11T12:55:55;38.00;;;22.38;;
8887;SDS011;4480;52.370;9.748;2023-02-11T12:58:25;40.10;;;23.33;;
8887;SDS011;4480;52.370;9.748;2023-02-11T13:00:58;36.33;;;22.05;;
8887;SDS011;4480;52.370;9.748;2023-02-11T13:03:30;34.15;;;21.77;;
8887;SDS011;4480;52.370;9.748;2023-02-11T13:06:03;29.58;;;21.95;;
8887;SDS011;4480;52.370;9.748;2023-02-11T13:08:36;32.55;;;22.15;;
8887;SDS011;4480;52.370;9.748;2023-02-11T13:11:06;31.10;;;19.30;;
8887;SDS011;4480;52.370;9.748;2023-02-11T13:13:45;35.58;;;19.98;;
8887;SDS011;4480;52.370;9.748;2023-02-11T13:16:18;34.80;;;23.15;;
8887;SDS011;4480;52.370;9.748;2023-02-11T13:18:53;37.92;;;23.85;;
8887;SDS011;4480;52.370;9.748;2023-02-11T13:21:33;37.17;;;21.48;;
8887;SDS011;4480;52.370;9.748;2023-02-11T13:24:08;35.13;;;20.95;;
8887;SDS011;4480;52.370;9.748;2023-02-11T13:26:45;34.42;;;22.00;;
8887;SDS011;4480;52.370;9.748;2023-02-11T13:29:23;32.90;;;21.10;;
8887;SDS011;4480;52.370;9.748;2023-02-11T13:32:05;36.65;;;22.38;;
8887;SDS011;4480;52.370;9.748;2023-02-11T13:37:22;36.83;;;22.17;;
8887;SDS011;4480;52.370;9.748;2023-02-11T13:39:55;33.45;;;21.05;;
8887;SDS011;4480;52.370;9.748;2023-02-11T13:42:23;33.40;;;22.40;;
8887;SDS011;4480;52.370;9.748;2023-02-11T13:44:50;31.73;;;21.40;;
8887;SDS011;4480;52.370;9.748;2023-02-11T13:47:24;35.28;;;21.65;;
8887;SDS011;4480;52.370;9.748;2023-02-11T13:49:54;36.85;;;23.10;;
8887;SDS011;4480;52.370;9.748;2023-02-11T13:52:22;30.92;;;20.85;;
8887;SDS011;4480;52.370;9.748;2023-02-11T13:54:52;31.55;;;20.15;;
8887;SDS011;4480;52.370;9.748;2023-02-11T13:57:37;35.47;;;22.60;;
8887;SDS011;4480;52.370;9.748;2023-02-11T14:03:19;33.38;;;20.88;;
8887;SDS011;4480;52.370;9.748;2023-02-11T14:06:17;34.03;;;22.25;;
8887;SDS011;4480;52.370;9.748;2023-02-11T14:17:52;33.17;;;21.10;;
8887;SDS011;4480;52.370;9.748;2023-02-11T14:20:33;35.58;;;21.38;;
8887;SDS011;4480;52.370;9.748;2023-02-11T14:23:15;36.17;;;22.23;;
8887;SDS011;4480;52.370;9.748;2023-02-11T14:25:57;42.80;;;22.63;;
8887;SDS011;4480;52.370;9.748;2023-02-11T14:28:51;36.83;;;23.90;;
8887;SDS011;4480;52.370;9.748;2023-02-11T14:31:25;36.92;;;22.42;;
8887;SDS011;4480;52.370;9.748;2023-02-11T14:34:02;32.63;;;22.08;;
8887;SDS011;4480;52.370;9.748;2023-02-11T14:36:50;35.75;;;22.42;;
8887;SDS011;4480;52.370;9.748;2023-02-11T14:39:28;34.28;;;22.55;;
8887;SDS011;4480;52.370;9.748;2023-02-11T14:42:06;32.65;;;22.45;;
8887;SDS011;4480;52.370;9.748;2023-02-11T14:44:43;34.30;;;21.85;;
8887;SDS011;4480;52.370;9.748;2023-02-11T14:47:11;39.45;;;24.10;;
8887;SDS011;4480;52.370;9.748;2023-02-11T14:49:43;38.95;;;23.98;;
8887;SDS011;4480;52.370;9.748;2023-02-11T14:52:15;35.88;;;22.98;;
8887;SDS011;4480;52.370;9.748;2023-02-11T14:54:51;32.05;;;22.20;;
8887;SDS011;4480;52.370;9.748;2023-02-11T14:57:28;40.15;;;22.73;;
8887;SDS011;4480;52.370;9.748;2023-02-11T14:59:55;40.47;;;23.92;;
8887;SDS011;4480;52.370;9.748;2023-02-11T15:02:27;37.47;;;22.50;;
8887;SDS011;4480;52.370;9.748;2023-02-11T15:07:44;33.95;;;22.77;;
8887;SDS011;4480;52.370;9.748;2023-02-11T15:10:21;36.58;;;22.90;;
8887;SDS011;4480;52.370;9.748;2023-02-11T15:12:53;38.40;;;22.85;;
8887;SDS011;4480;52.370;9.748;2023-02-11T15:15:21;34.28;;;22.77;;
8887;SDS011;4480;52.370;9.748;2023-02-11T15:17:47;35.40;;;22.85;;
8887;SDS011;4480;52.370;9.748;2023-02-11T15:20:17;38.58;;;23.50;;
8887;SDS011;4480;52.370;9.748;2023-02-11T15:22:49;41.45;;;24.88;;
8887;SDS011;4480;52.370;9.748;2023-02-11T15:25:20;45.13;;;26.30;;
8887;SDS011;4480;52.370;9.748;2023-02-11T15:27:48;36.40;;;22.92;;
8887;SDS011;4480;52.370;9.748;2023-02-11T15:30:22;43.53;;;22.70;;
8887;SDS011;4480;52.370;9.748;2023-02-11T15:32:51;37.70;;;23.45;;
8887;SDS011;4480;52.370;9.748;2023-02-11T15:35:23;39.42;;;23.63;;
8887;SDS011;4480;52.370;9.748;2023-02-11T15:37:53;36.67;;;22.90;;